sensor_id;sensor_type;location;lat;lon;timestamp;P1;durP1;ratioP1;P2;durP2;ratioP2
7205;SDS011;3644;53.480;10.004;2023-05-10T00:02:06;7.00;;;3.23;;
7205;SDS011;3644;53.480;10.004;2023-05-10T00:04:32;3.10;;;2.50;;
7205;SDS011;3644;53.480;10.004;2023-05-10T00:06:58;2.53;;;2.17;;
7205;SDS011;3644;53.480;10.004;2023-05-10T00:09:24;5.10;;;2.63;;
7205;SDS011;3644;53.480;10.004;2023-05-10T00:11:49;4.17;;;2.30;;
7205;SDS011;3644;53.480;10.004;2023-05-10T00:14:15;2.70;;;2.50;;
7205;SDS011;3644;53.480;10.004;2023-05-10T00:16:41;2.63;;;2.43;;
7205;SDS011;3644;53.480;10.004;2023-05-10T00:19:06;5.00;;;2.67;;
7205;SDS011;3644;53.480;10.004;2023-05-10T00:21:32;4.80;;;2.90;;
7205;SDS011;3644;53.480;10.004;2023-05-10T00:23:58;9.97;;;3.40;;
7205;SDS011;3644;53.480;10.004;2023-05-10T00:26:24;10.70;;;3.43;;
7205;SDS011;3644;53.480;10.004;2023-05-10T00:28:50;4.87;;;2.77;;
7205;SDS011;3644;53.480;10.004;2023-05-10T00:31:15;4.00;;;2.87;;
7205;SDS011;3644;53.480;10.004;2023-05-10T00:33:41;4.20;;;3.20;;
7205;SDS011;3644;53.480;10.004;2023-05-10T00:36:06;3.63;;;2.60;;
7205;SDS011;3644;53.480;10.004;2023-05-10T00:38:32;3.63;;;2.80;;
7205;SDS011;3644;53.480;10.004;2023-05-10T00:40:58;4.10;;;2.63;;
7205;SDS011;3644;53.480;10.004;2023-05-10T00:43:24;3.73;;;2.50;;
7205;SDS011;3644;53.480;10.004;2023-05-10T00:45:49;4.80;;;2.67;;
7205;SDS011;3644;53.480;10.004;2023-05-10T00:48:15;4.00;;;3.57;;
7205;SDS011;3644;53.480;10.004;2023-05-10T00:50:41;3.33;;;2.70;;
7205;SDS011;3644;53.480;10.004;2023-05-10T00:53:06;7.57;;;3.77;;
7205;SDS011;3644;53.480;10.004;2023-05-10T00:55:32;3.03;;;2.70;;
7205;SDS011;3644;53.480;10.004;2023-05-10T00:57:59;3.57;;;2.83;;
7205;SDS011;3644;53.480;10.004;2023-05-10T01:00:25;4.20;;;2.70;;
7205;SDS011;3644;53.480;10.004;2023-05-10T01:02:50;3.70;;;3.27;;
7205;SDS011;3644;53.480;10.004;2023-05-10T01:05:18;11.67;;;3.10;;
7205;SDS011;3644;53.480;10.004;2023-05-10T01:07:43;4.10;;;3.50;;
7205;SDS011;3644;53.480;10.004;2023-05-10T01:10:09;9.80;;;3.77;;
7205;SDS011;3644;53.480;10.004;2023-05-10T01:12:35;4.43;;;3.17;;
7205;SDS011;3644;53.480;10.004;2023-05-10T01:15:05;4.47;;;3.03;;
7205;SDS011;3644;53.480;10.004;2023-05-10T01:17:35;4.83;;;3.00;;
7205;SDS011;3644;53.480;10.004;2023-05-10T01:20:05;5.80;;;3.50;;
7205;SDS011;3644;53.480;10.004;2023-05-10T01:22:47;4.07;;;2.93;;
7205;SDS011;3644;53.480;10.004;2023-05-10T01:31:23;6.63;;;3.60;;
7205;SDS011;3644;53.480;10.004;2023-05-10T01:34:19;4.40;;;3.03;;
7205;SDS011;3644;53.480;10.004;2023-05-10T01:36:55;7.10;;;3.33;;
7205;SDS011;3644;53.480;10.004;2023-05-10T01:39:40;4.23;;;2.93;;
7205;SDS011;3644;53.480;10.004;2023-05-10T01:42:25;4.70;;;3.50;;
7205;SDS011;3644;53.480;10.004;2023-05-10T01:45:02;4.33;;;2.83;;
7205;SDS011;3644;53.480;10.004;2023-05-10T01:47:43;5.13;;;3.17;;
7205;SDS011;3644;53.480;10.004;2023-05-10T01:50:18;4.27;;;3.30;;
7205;SDS011;3644;53.480;10.004;2023-05-10T01:52:50;4.63;;;3.60;;
7205;SDS011;3644;53.480;10.004;2023-05-10T01:55:20;4.10;;;3.20;;
7205;SDS011;3644;53.480;10.004;2023-05-10T01:57:48;3.23;;;2.80;;
7205;SDS011;3644;53.480;10.004;2023-05-10T02:00:20;8.70;;;3.37;;
7205;SDS011;3644;53.480;10.004;2023-05-10T02:02:46;4.10;;;3.40;;
7205;SDS011;3644;53.480;10.004;2023-05-10T02:05:13;4.57;;;3.30;;
7205;SDS011;3644;53.480;10.004;2023-05-10T02:07:41;5.07;;;4.37;;
7205;SDS011;3644;53.480;10.004;2023-05-10T02:10:08;4.57;;;3.23;;
7205;SDS011;3644;53.480;10.004;2023-05-10T02:12:35;5.23;;;3.20;;
7205;SDS011;3644;53.480;10.004;2023-05-10T02:15:03;4.43;;;3.60;;
7205;SDS011;3644;53.480;10.004;2023-05-10T02:17:30;3.83;;;3.43;;
7205;SDS011;3644;53.480;10.004;2023-05-10T02:19:57;3.77;;;3.40;;
7205;SDS011;3644;53.480;10.004;2023-05-10T02:22:25;10.80;;;4.60;;
7205;SDS011;3644;53.480;10.004;2023-05-10T02:24:52;6.90;;;3.63;;
7205;SDS011;3644;53.480;10.004;2023-05-10T02:27:20;8.17;;;3.30;;
7205;SDS011;3644;53.480;10.004;2023-05-10T02:29:47;4.53;;;3.03;;
7205;SDS011;3644;53.480;10.004;2023-05-10T02:32:14;5.00;;;3.00;;
7205;SDS011;3644;53.480;10.004;2023-05-10T02:34:41;16.93;;;3.67;;
7205;SDS011;3644;53.480;10.004;2023-05-10T02:37:07;4.80;;;3.50;;
7205;SDS011;3644;53.480;10.004;2023-05-10T02:39:33;5.87;;;4.30;;
7205;SDS011;3644;53.480;10.004;2023-05-10T02:42:00;4.43;;;3.00;;
7205;SDS011;3644;53.480;10.004;2023-05-10T02:44:27;4.50;;;3.30;;
7205;SDS011;3644;53.480;10.004;2023-05-10T02:46:55;4.67;;;3.83;;
7205;SDS011;3644;53.480;10.004;2023-05-10T02:49:21;4.67;;;3.27;;
7205;SDS011;3644;53.480;10.004;2023-05-10T02:51:49;7.60;;;3.27;;
7205;SDS011;3644;53.480;10.004;2023-05-10T02:54:20;7.87;;;4.33;;
7205;SDS011;3644;53.480;10.004;2023-05-10T02:56:50;4.27;;;3.43;;
7205;SDS011;3644;53.480;10.004;2023-05-10T02:59:18;4.13;;;3.50;;
7205;SDS011;3644;53.480;10.004;2023-05-10T03:01:44;9.73;;;3.83;;
7205;SDS011;3644;53.480;10.004;2023-05-10T03:04:10;5.57;;;3.30;;
7205;SDS011;3644;53.480;10.004;2023-05-10T03:06:35;5.33;;;3.23;;
7205;SDS011;3644;53.480;10.004;2023-05-10T03:09:01;3.50;;;3.13;;
7205;SDS011;3644;53.480;10.004;2023-05-10T03:11:31;11.63;;;3.03;;
7205;SDS011;3644;53.480;10.004;2023-05-10T03:16:54;6.37;;;3.50;;
7205;SDS011;3644;53.480;10.004;2023-05-10T03:19:49;5.70;;;4.83;;
7205;SDS011;3644;53.480;10.004;2023-05-10T03:22:24;3.40;;;3.10;;
7205;SDS011;3644;53.480;10.004;2023-05-10T03:24:55;3.80;;;3.40;;
7205;SDS011;3644;53.480;10.004;2023-05-10T03:27:25;5.40;;;3.00;;
7205;SDS011;3644;53.480;10.004;2023-05-10T03:29:52;4.87;;;3.80;;
7205;SDS011;3644;53.480;10.004;2023-05-10T03:32:18;5.27;;;3.43;;
7205;SDS011;3644;53.480;10.004;2023-05-10T03:34:44;7.60;;;3.83;;
7205;SDS011;3644;53.480;10.004;2023-05-10T03:37:09;4.50;;;3.60;;
7205;SDS011;3644;53.480;10.004;2023-05-10T03:39:36;4.60;;;4.10;;
7205;SDS011;3644;53.480;10.004;2023-05-10T03:42:01;6.80;;;3.40;;
7205;SDS011;3644;53.480;10.004;2023-05-10T03:44:27;9.10;;;3.27;;
7205;SDS011;3644;53.480;10.004;2023-05-10T03:46:52;4.50;;;4.10;;
7205;SDS011;3644;53.480;10.004;2023-05-10T03:49:18;5.30;;;3.57;;
7205;SDS011;3644;53.480;10.004;2023-05-10T03:51:43;4.63;;;3.30;;
7205;SDS011;3644;53.480;10.004;2023-05-10T03:54:09;7.23;;;3.80;;
7205;SDS011;3644;53.480;10.004;2023-05-10T03:56:34;3.90;;;3.50;;
7205;SDS011;3644;53.480;10.004;2023-05-10T03:59:00;8.00;;;2.77;;
7205;SDS011;3644;53.480;10.004;2023-05-10T04:01:25;4.47;;;3.60;;
7205;SDS011;3644;53.480;10.004;2023-05-10T04:03:51;9.13;;;3.40;;
7205;SDS011;3644;53.480;10.004;2023-05-10T04:06:16;5.43;;;3.30;;
7205;SDS011;3644;53.480;10.004;2023-05-10T04:08:42;4.63;;;3.77;;
7205;SDS011;3644;53.480;10.004;2023-05-10T04:11:08;4.83;;;3.57;;
7205;SDS011;3644;53.480;10.004;2023-05-10T04:13:34;5.47;;;3.40;;
7205;SDS011;3644;53.480;10.004;2023-05-10T04:16:00;3.63;;;3.27;;
7205;SDS011;3644;53.480;10.004;2023-05-10T04:18:26;4.80;;;3.70;;
7205;SDS011;3644;53.480;10.004;2023-05-10T04:20:51;7.60;;;4.07;;
7205;SDS011;3644;53.480;10.004;2023-05-10T04:23:17;4.17;;;3.37;;
7205;SDS011;3644;53.480;10.004;2023-05-10T04:25:42;10.40;;;3.33;;
7205;SDS011;3644;53.480;10.004;2023-05-10T04:28:08;7.40;;;3.43;;
7205;SDS011;3644;53.480;10.004;2023-05-10T04:30:34;7.87;;;4.03;;
7205;SDS011;3644;53.480;10.004;2023-05-10T04:32:59;6.50;;;4.20;;
7205;SDS011;3644;53.480;10.004;2023-05-10T04:35:26;7.40;;;3.80;;
7205;SDS011;3644;53.480;10.004;2023-05-10T04:37:53;4.80;;;3.50;;
7205;SDS011;3644;53.480;10.004;2023-05-10T04:40:18;3.97;;;3.27;;
7205;SDS011;3644;53.480;10.004;2023-05-10T04:42:44;8.13;;;4.17;;
7205;SDS011;3644;53.480;10.004;2023-05-10T04:45:10;3.50;;;3.17;;
7205;SDS011;3644;53.480;10.004;2023-05-10T04:47:35;3.73;;;3.23;;
7205;SDS011;3644;53.480;10.004;2023-05-10T04:50:02;4.10;;;3.63;;
7205;SDS011;3644;53.480;10.004;2023-05-10T04:52:30;5.27;;;3.67;;
7205;SDS011;3644;53.480;10.004;2023-05-10T04:54:56;7.93;;;4.17;;
7205;SDS011;3644;53.480;10.004;2023-05-10T04:57:21;5.73;;;3.60;;
7205;SDS011;3644;53.480;10.004;2023-05-10T04:59:47;5.40;;;3.70;;
7205;SDS011;3644;53.480;10.004;2023-05-10T05:02:13;4.57;;;3.37;;
7205;SDS011;3644;53.480;10.004;2023-05-10T05:04:38;6.43;;;3.50;;
7205;SDS011;3644;53.480;10.004;2023-05-10T05:07:04;7.70;;;4.20;;
7205;SDS011;3644;53.480;10.004;2023-05-10T05:09:29;7.57;;;3.53;;
7205;SDS011;3644;53.480;10.004;2023-05-10T05:11:56;7.70;;;3.60;;
7205;SDS011;3644;53.480;10.004;2023-05-10T05:14:22;6.23;;;4.03;;
7205;SDS011;3644;53.480;10.004;2023-05-10T05:16:50;5.00;;;3.60;;
7205;SDS011;3644;53.480;10.004;2023-05-10T05:19:16;9.30;;;3.30;;
7205;SDS011;3644;53.480;10.004;2023-05-10T05:21:41;4.90;;;3.97;;
7205;SDS011;3644;53.480;10.004;2023-05-10T05:24:07;8.80;;;4.60;;
7205;SDS011;3644;53.480;10.004;2023-05-10T05:26:32;4.80;;;3.77;;
7205;SDS011;3644;53.480;10.004;2023-05-10T05:28:58;6.83;;;3.80;;
7205;SDS011;3644;53.480;10.004;2023-05-10T05:31:23;4.33;;;3.33;;
7205;SDS011;3644;53.480;10.004;2023-05-10T05:33:49;3.70;;;3.23;;
7205;SDS011;3644;53.480;10.004;2023-05-10T05:36:14;5.70;;;3.60;;
7205;SDS011;3644;53.480;10.004;2023-05-10T05:38:40;5.93;;;3.73;;
7205;SDS011;3644;53.480;10.004;2023-05-10T05:41:06;5.53;;;3.60;;
7205;SDS011;3644;53.480;10.004;2023-05-10T05:43:31;6.13;;;4.30;;
7205;SDS011;3644;53.480;10.004;2023-05-10T05:45:57;6.23;;;3.30;;
7205;SDS011;3644;53.480;10.004;2023-05-10T05:48:22;4.43;;;4.03;;
7205;SDS011;3644;53.480;10.004;2023-05-10T05:50:48;12.37;;;5.00;;
7205;SDS011;3644;53.480;10.004;2023-05-10T05:53:14;4.83;;;4.20;;
7205;SDS011;3644;53.480;10.004;2023-05-10T05:55:40;4.80;;;3.83;;
7205;SDS011;3644;53.480;10.004;2023-05-10T05:58:15;4.77;;;3.90;;
7205;SDS011;3644;53.480;10.004;2023-05-10T06:00:41;5.90;;;3.40;;
7205;SDS011;3644;53.480;10.004;2023-05-10T06:03:06;5.43;;;2.90;;
7205;SDS011;3644;53.480;10.004;2023-05-10T06:05:32;4.03;;;3.50;;
7205;SDS011;3644;53.480;10.004;2023-05-10T06:07:59;7.27;;;3.57;;
7205;SDS011;3644;53.480;10.004;2023-05-10T06:10:25;5.60;;;3.57;;
7205;SDS011;3644;53.480;10.004;2023-05-10T06:12:50;9.73;;;3.87;;
7205;SDS011;3644;53.480;10.004;2023-05-10T06:15:16;4.37;;;3.97;;
7205;SDS011;3644;53.480;10.004;2023-05-10T06:17:41;3.50;;;3.20;;
7205;SDS011;3644;53.480;10.004;2023-05-10T06:20:08;3.90;;;3.47;;
7205;SDS011;3644;53.480;10.004;2023-05-10T06:22:34;4.20;;;3.57;;
7205;SDS011;3644;53.480;10.004;2023-05-10T06:24:59;5.60;;;3.90;;
7205;SDS011;3644;53.480;10.004;2023-05-10T06:27:25;3.57;;;3.23;;
7205;SDS011;3644;53.480;10.004;2023-05-10T06:29:50;4.30;;;3.90;;
7205;SDS011;3644;53.480;10.004;2023-05-10T06:32:16;4.27;;;3.37;;
7205;SDS011;3644;53.480;10.004;2023-05-10T06:34:42;3.90;;;3.40;;
7205;SDS011;3644;53.480;10.004;2023-05-10T06:37:08;3.40;;;2.53;;
7205;SDS011;3644;53.480;10.004;2023-05-10T06:39:34;4.70;;;3.47;;
7205;SDS011;3644;53.480;10.004;2023-05-10T06:41:59;4.43;;;3.40;;
7205;SDS011;3644;53.480;10.004;2023-05-10T06:44:26;11.00;;;3.87;;
7205;SDS011;3644;53.480;10.004;2023-05-10T06:46:52;7.30;;;3.40;;
7205;SDS011;3644;53.480;10.004;2023-05-10T06:49:18;9.83;;;3.20;;
7205;SDS011;3644;53.480;10.004;2023-05-10T06:51:44;4.00;;;3.30;;
7205;SDS011;3644;53.480;10.004;2023-05-10T06:54:10;3.93;;;2.97;;
7205;SDS011;3644;53.480;10.004;2023-05-10T06:56:35;7.30;;;3.70;;
7205;SDS011;3644;53.480;10.004;2023-05-10T06:59:01;3.30;;;3.00;;
7205;SDS011;3644;53.480;10.004;2023-05-10T07:01:26;3.10;;;2.80;;
7205;SDS011;3644;53.480;10.004;2023-05-10T07:03:51;4.20;;;3.10;;
7205;SDS011;3644;53.480;10.004;2023-05-10T07:06:17;3.83;;;2.67;;
7205;SDS011;3644;53.480;10.004;2023-05-10T07:08:43;6.13;;;3.50;;
7205;SDS011;3644;53.480;10.004;2023-05-10T07:11:08;6.13;;;3.30;;
7205;SDS011;3644;53.480;10.004;2023-05-10T07:13:35;5.93;;;3.07;;
7205;SDS011;3644;53.480;10.004;2023-05-10T07:16:01;3.93;;;2.97;;
7205;SDS011;3644;53.480;10.004;2023-05-10T07:18:27;5.20;;;3.43;;
7205;SDS011;3644;53.480;10.004;2023-05-10T07:20:53;4.73;;;3.33;;
7205;SDS011;3644;53.480;10.004;2023-05-10T07:23:19;7.30;;;3.20;;
7205;SDS011;3644;53.480;10.004;2023-05-10T07:25:48;4.90;;;3.13;;
7205;SDS011;3644;53.480;10.004;2023-05-10T07:28:15;5.40;;;3.87;;
7205;SDS011;3644;53.480;10.004;2023-05-10T07:30:41;6.40;;;3.60;;
7205;SDS011;3644;53.480;10.004;2023-05-10T07:33:08;5.90;;;3.27;;
7205;SDS011;3644;53.480;10.004;2023-05-10T07:35:34;3.70;;;3.37;;
7205;SDS011;3644;53.480;10.004;2023-05-10T07:38:00;4.00;;;3.70;;
7205;SDS011;3644;53.480;10.004;2023-05-10T07:40:26;3.27;;;2.97;;
7205;SDS011;3644;53.480;10.004;2023-05-10T07:42:51;3.63;;;3.33;;
7205;SDS011;3644;53.480;10.004;2023-05-10T07:45:17;6.33;;;3.00;;
7205;SDS011;3644;53.480;10.004;2023-05-10T07:47:43;2.50;;;2.30;;
7205;SDS011;3644;53.480;10.004;2023-05-10T07:50:08;2.83;;;2.63;;
7205;SDS011;3644;53.480;10.004;2023-05-10T07:52:34;3.10;;;2.70;;
7205;SDS011;3644;53.480;10.004;2023-05-10T07:54:59;6.20;;;3.40;;
7205;SDS011;3644;53.480;10.004;2023-05-10T07:57:25;4.13;;;3.23;;
7205;SDS011;3644;53.480;10.004;2023-05-10T07:59:50;3.53;;;3.20;;
7205;SDS011;3644;53.480;10.004;2023-05-10T08:02:16;4.07;;;3.30;;
7205;SDS011;3644;53.480;10.004;2023-05-10T08:04:41;3.83;;;3.40;;
7205;SDS011;3644;53.480;10.004;2023-05-10T08:07:07;3.63;;;3.07;;
7205;SDS011;3644;53.480;10.004;2023-05-10T08:09:32;16.13;;;4.30;;
7205;SDS011;3644;53.480;10.004;2023-05-10T08:11:58;4.60;;;2.80;;
7205;SDS011;3644;53.480;10.004;2023-05-10T08:14:25;6.37;;;3.23;;
7205;SDS011;3644;53.480;10.004;2023-05-10T08:16:52;3.07;;;2.87;;
7205;SDS011;3644;53.480;10.004;2023-05-10T08:19:17;7.50;;;2.87;;
7205;SDS011;3644;53.480;10.004;2023-05-10T08:21:44;5.30;;;3.00;;
7205;SDS011;3644;53.480;10.004;2023-05-10T08:24:10;4.20;;;2.97;;
7205;SDS011;3644;53.480;10.004;2023-05-10T08:26:36;3.83;;;2.80;;
7205;SDS011;3644;53.480;10.004;2023-05-10T08:29:02;6.10;;;3.30;;
7205;SDS011;3644;53.480;10.004;2023-05-10T08:31:27;4.37;;;3.23;;
7205;SDS011;3644;53.480;10.004;2023-05-10T08:33:53;3.83;;;3.33;;
7205;SDS011;3644;53.480;10.004;2023-05-10T08:36:18;3.97;;;3.03;;
7205;SDS011;3644;53.480;10.004;2023-05-10T08:38:50;4.47;;;3.83;;
7205;SDS011;3644;53.480;10.004;2023-05-10T08:41:16;4.20;;;3.67;;
7205;SDS011;3644;53.480;10.004;2023-05-10T08:43:45;3.83;;;2.93;;
7205;SDS011;3644;53.480;10.004;2023-05-10T08:46:11;3.63;;;3.33;;
7205;SDS011;3644;53.480;10.004;2023-05-10T08:48:41;6.40;;;3.40;;
7205;SDS011;3644;53.480;10.004;2023-05-10T08:51:07;10.80;;;3.50;;
7205;SDS011;3644;53.480;10.004;2023-05-10T08:53:35;3.60;;;3.27;;
7205;SDS011;3644;53.480;10.004;2023-05-10T08:56:02;4.43;;;3.60;;
7205;SDS011;3644;53.480;10.004;2023-05-10T08:58:28;4.90;;;3.40;;
7205;SDS011;3644;53.480;10.004;2023-05-10T09:00:53;3.50;;;3.13;;
7205;SDS011;3644;53.480;10.004;2023-05-10T09:03:20;4.97;;;2.97;;
7205;SDS011;3644;53.480;10.004;2023-05-10T09:05:46;3.63;;;3.30;;
7205;SDS011;3644;53.480;10.004;2023-05-10T09:08:13;5.97;;;3.10;;
7205;SDS011;3644;53.480;10.004;2023-05-10T09:10:41;3.27;;;3.00;;
7205;SDS011;3644;53.480;10.004;2023-05-10T09:13:12;4.97;;;3.77;;
7205;SDS011;3644;53.480;10.004;2023-05-10T09:15:40;4.10;;;3.23;;
7205;SDS011;3644;53.480;10.004;2023-05-10T09:18:05;13.20;;;4.17;;
7205;SDS011;3644;53.480;10.004;2023-05-10T09:20:31;6.50;;;4.07;;
7205;SDS011;3644;53.480;10.004;2023-05-10T09:22:56;3.60;;;3.30;;
7205;SDS011;3644;53.480;10.004;2023-05-10T09:25:22;7.67;;;3.67;;
7205;SDS011;3644;53.480;10.004;2023-05-10T09:27:48;5.73;;;3.50;;
7205;SDS011;3644;53.480;10.004;2023-05-10T09:30:23;7.23;;;5.00;;
7205;SDS011;3644;53.480;10.004;2023-05-10T09:32:53;4.40;;;4.00;;
7205;SDS011;3644;53.480;10.004;2023-05-10T09:35:20;4.30;;;3.57;;
7205;SDS011;3644;53.480;10.004;2023-05-10T09:37:48;8.20;;;4.33;;
7205;SDS011;3644;53.480;10.004;2023-05-10T09:40:19;4.63;;;4.10;;
7205;SDS011;3644;53.480;10.004;2023-05-10T09:42:58;7.90;;;4.47;;
7205;SDS011;3644;53.480;10.004;2023-05-10T09:45:32;6.57;;;4.77;;
7205;SDS011;3644;53.480;10.004;2023-05-10T09:47:59;4.33;;;4.00;;
7205;SDS011;3644;53.480;10.004;2023-05-10T09:50:26;9.40;;;4.53;;
7205;SDS011;3644;53.480;10.004;2023-05-10T09:52:59;5.07;;;3.73;;
7205;SDS011;3644;53.480;10.004;2023-05-10T09:55:40;6.33;;;3.40;;
7205;SDS011;3644;53.480;10.004;2023-05-10T09:58:09;8.73;;;4.70;;
7205;SDS011;3644;53.480;10.004;2023-05-10T10:00:42;9.50;;;4.87;;
7205;SDS011;3644;53.480;10.004;2023-05-10T10:03:13;9.23;;;4.00;;
7205;SDS011;3644;53.480;10.004;2023-05-10T10:05:40;5.50;;;4.90;;
7205;SDS011;3644;53.480;10.004;2023-05-10T10:08:08;5.17;;;4.23;;
7205;SDS011;3644;53.480;10.004;2023-05-10T10:10:33;5.43;;;3.73;;
7205;SDS011;3644;53.480;10.004;2023-05-10T10:12:59;5.80;;;4.20;;
7205;SDS011;3644;53.480;10.004;2023-05-10T10:15:26;8.10;;;5.33;;
7205;SDS011;3644;53.480;10.004;2023-05-10T10:17:52;7.07;;;4.33;;
7205;SDS011;3644;53.480;10.004;2023-05-10T10:20:18;5.30;;;4.60;;
7205;SDS011;3644;53.480;10.004;2023-05-10T10:22:44;10.73;;;5.27;;
7205;SDS011;3644;53.480;10.004;2023-05-10T10:25:13;5.13;;;4.63;;
7205;SDS011;3644;53.480;10.004;2023-05-10T10:27:56;4.93;;;4.20;;
7205;SDS011;3644;53.480;10.004;2023-05-10T10:30:40;5.60;;;5.10;;
7205;SDS011;3644;53.480;10.004;2023-05-10T10:35:58;10.60;;;5.30;;
7205;SDS011;3644;53.480;10.004;2023-05-10T10:38:25;6.80;;;4.80;;
7205;SDS011;3644;53.480;10.004;2023-05-10T10:41:09;6.80;;;5.23;;
7205;SDS011;3644;53.480;10.004;2023-05-10T10:43:35;7.60;;;5.07;;
7205;SDS011;3644;53.480;10.004;2023-05-10T10:46:17;10.30;;;6.13;;
7205;SDS011;3644;53.480;10.004;2023-05-10T10:49:08;7.07;;;5.80;;
7205;SDS011;3644;53.480;10.004;2023-05-10T10:51:37;7.50;;;5.60;;
7205;SDS011;3644;53.480;10.004;2023-05-10T10:54:10;5.53;;;4.93;;
7205;SDS011;3644;53.480;10.004;2023-05-10T10:56:36;5.77;;;5.20;;
7205;SDS011;3644;53.480;10.004;2023-05-10T10:59:01;5.10;;;4.53;;
7205;SDS011;3644;53.480;10.004;2023-05-10T11:01:32;6.43;;;5.00;;
7205;SDS011;3644;53.480;10.004;2023-05-10T11:08:56;14.10;;;6.43;;
7205;SDS011;3644;53.480;10.004;2023-05-10T11:11:22;7.10;;;6.40;;
7205;SDS011;3644;53.480;10.004;2023-05-10T11:13:48;6.10;;;5.50;;
7205;SDS011;3644;53.480;10.004;2023-05-10T11:16:21;7.23;;;5.70;;
7205;SDS011;3644;53.480;10.004;2023-05-10T11:18:59;7.93;;;6.47;;
7205;SDS011;3644;53.480;10.004;2023-05-10T11:21:30;6.13;;;5.53;;
7205;SDS011;3644;53.480;10.004;2023-05-10T11:23:56;7.00;;;6.33;;
7205;SDS011;3644;53.480;10.004;2023-05-10T11:26:24;7.70;;;6.70;;
7205;SDS011;3644;53.480;10.004;2023-05-10T11:28:51;9.43;;;6.47;;
7205;SDS011;3644;53.480;10.004;2023-05-10T11:31:22;7.50;;;6.10;;
7205;SDS011;3644;53.480;10.004;2023-05-10T11:33:51;6.73;;;5.97;;
7205;SDS011;3644;53.480;10.004;2023-05-10T11:36:19;9.83;;;5.80;;
7205;SDS011;3644;53.480;10.004;2023-05-10T11:38:46;9.87;;;5.90;;
7205;SDS011;3644;53.480;10.004;2023-05-10T11:41:12;7.60;;;6.30;;
7205;SDS011;3644;53.480;10.004;2023-05-10T11:43:38;7.73;;;6.30;;
7205;SDS011;3644;53.480;10.004;2023-05-10T11:46:05;7.00;;;5.60;;
7205;SDS011;3644;53.480;10.004;2023-05-10T11:48:41;7.20;;;5.77;;
7205;SDS011;3644;53.480;10.004;2023-05-10T11:51:07;7.00;;;5.40;;
7205;SDS011;3644;53.480;10.004;2023-05-10T11:53:33;7.50;;;6.40;;
7205;SDS011;3644;53.480;10.004;2023-05-10T11:56:06;9.23;;;6.83;;
7205;SDS011;3644;53.480;10.004;2023-05-10T11:58:35;6.70;;;6.10;;
7205;SDS011;3644;53.480;10.004;2023-05-10T12:01:02;7.37;;;6.63;;
7205;SDS011;3644;53.480;10.004;2023-05-10T12:03:29;8.67;;;6.47;;
7205;SDS011;3644;53.480;10.004;2023-05-10T12:05:55;7.90;;;6.30;;
7205;SDS011;3644;53.480;10.004;2023-05-10T12:08:22;7.57;;;6.43;;
7205;SDS011;3644;53.480;10.004;2023-05-10T12:10:53;7.63;;;5.90;;
7205;SDS011;3644;53.480;10.004;2023-05-10T12:13:28;11.53;;;5.60;;
7205;SDS011;3644;53.480;10.004;2023-05-10T12:15:53;6.37;;;5.53;;
7205;SDS011;3644;53.480;10.004;2023-05-10T12:18:23;7.80;;;5.27;;
7205;SDS011;3644;53.480;10.004;2023-05-10T12:20:51;6.00;;;5.30;;
7205;SDS011;3644;53.480;10.004;2023-05-10T12:23:18;6.60;;;5.77;;
7205;SDS011;3644;53.480;10.004;2023-05-10T12:25:45;8.03;;;4.80;;
7205;SDS011;3644;53.480;10.004;2023-05-10T12:28:11;5.63;;;5.03;;
7205;SDS011;3644;53.480;10.004;2023-05-10T12:30:36;6.97;;;5.07;;
7205;SDS011;3644;53.480;10.004;2023-05-10T12:33:09;7.03;;;5.53;;
7205;SDS011;3644;53.480;10.004;2023-05-10T12:35:44;9.93;;;5.77;;
7205;SDS011;3644;53.480;10.004;2023-05-10T12:40:59;7.00;;;5.30;;
7205;SDS011;3644;53.480;10.004;2023-05-10T12:43:26;6.37;;;5.60;;
7205;SDS011;3644;53.480;10.004;2023-05-10T12:45:52;6.67;;;5.00;;
7205;SDS011;3644;53.480;10.004;2023-05-10T12:48:18;5.30;;;4.63;;
7205;SDS011;3644;53.480;10.004;2023-05-10T12:50:43;4.93;;;4.53;;
7205;SDS011;3644;53.480;10.004;2023-05-10T12:53:10;4.70;;;4.30;;
7205;SDS011;3644;53.480;10.004;2023-05-10T12:55:35;4.73;;;4.30;;
7205;SDS011;3644;53.480;10.004;2023-05-10T12:58:01;11.50;;;5.20;;
7205;SDS011;3644;53.480;10.004;2023-05-10T13:00:26;5.83;;;4.80;;
7205;SDS011;3644;53.480;10.004;2023-05-10T13:02:52;11.20;;;4.33;;
7205;SDS011;3644;53.480;10.004;2023-05-10T13:05:18;9.00;;;4.47;;
7205;SDS011;3644;53.480;10.004;2023-05-10T13:07:43;5.23;;;4.20;;
7205;SDS011;3644;53.480;10.004;2023-05-10T13:10:09;4.80;;;4.40;;
7205;SDS011;3644;53.480;10.004;2023-05-10T13:12:35;4.80;;;4.37;;
7205;SDS011;3644;53.480;10.004;2023-05-10T13:15:01;5.50;;;4.37;;
7205;SDS011;3644;53.480;10.004;2023-05-10T13:17:28;5.43;;;4.63;;
7205;SDS011;3644;53.480;10.004;2023-05-10T13:19:54;4.90;;;3.93;;
7205;SDS011;3644;53.480;10.004;2023-05-10T13:22:19;5.30;;;4.80;;
7205;SDS011;3644;53.480;10.004;2023-05-10T13:24:45;6.27;;;4.80;;
7205;SDS011;3644;53.480;10.004;2023-05-10T13:27:10;5.73;;;5.10;;
7205;SDS011;3644;53.480;10.004;2023-05-10T13:29:36;4.60;;;4.20;;
7205;SDS011;3644;53.480;10.004;2023-05-10T13:32:01;4.70;;;4.23;;
7205;SDS011;3644;53.480;10.004;2023-05-10T13:34:27;7.13;;;5.13;;
7205;SDS011;3644;53.480;10.004;2023-05-10T13:36:52;5.30;;;4.73;;
7205;SDS011;3644;53.480;10.004;2023-05-10T13:39:19;5.07;;;4.60;;
7205;SDS011;3644;53.480;10.004;2023-05-10T13:41:45;5.40;;;4.63;;
7205;SDS011;3644;53.480;10.004;2023-05-10T13:44:12;5.10;;;4.60;;
7205;SDS011;3644;53.480;10.004;2023-05-10T13:46:38;5.23;;;4.73;;
7205;SDS011;3644;53.480;10.004;2023-05-10T13:49:04;4.73;;;4.30;;
7205;SDS011;3644;53.480;10.004;2023-05-10T13:51:29;6.33;;;4.20;;
7205;SDS011;3644;53.480;10.004;2023-05-10T13:53:56;5.30;;;3.90;;
7205;SDS011;3644;53.480;10.004;2023-05-10T13:56:22;4.73;;;4.27;;
7205;SDS011;3644;53.480;10.004;2023-05-10T13:58:48;4.90;;;4.50;;
7205;SDS011;3644;53.480;10.004;2023-05-10T14:01:13;4.97;;;4.47;;
7205;SDS011;3644;53.480;10.004;2023-05-10T14:03:39;5.33;;;4.30;;
7205;SDS011;3644;53.480;10.004;2023-05-10T14:06:05;4.70;;;4.20;;
7205;SDS011;3644;53.480;10.004;2023-05-10T14:08:32;5.10;;;4.40;;
7205;SDS011;3644;53.480;10.004;2023-05-10T14:10:57;5.13;;;4.63;;
7205;SDS011;3644;53.480;10.004;2023-05-10T14:13:23;6.77;;;4.50;;
7205;SDS011;3644;53.480;10.004;2023-05-10T14:15:49;6.60;;;4.57;;
7205;SDS011;3644;53.480;10.004;2023-05-10T14:18:15;7.70;;;4.77;;
7205;SDS011;3644;53.480;10.004;2023-05-10T14:20:41;6.07;;;4.93;;
7205;SDS011;3644;53.480;10.004;2023-05-10T14:23:06;6.43;;;4.57;;
7205;SDS011;3644;53.480;10.004;2023-05-10T14:25:32;5.83;;;4.40;;
7205;SDS011;3644;53.480;10.004;2023-05-10T14:27:58;4.40;;;4.00;;
7205;SDS011;3644;53.480;10.004;2023-05-10T14:30:23;4.80;;;4.40;;
7205;SDS011;3644;53.480;10.004;2023-05-10T14:32:49;5.43;;;4.27;;
7205;SDS011;3644;53.480;10.004;2023-05-10T14:35:15;5.10;;;4.00;;
7205;SDS011;3644;53.480;10.004;2023-05-10T14:37:40;7.50;;;4.20;;
7205;SDS011;3644;53.480;10.004;2023-05-10T14:40:06;3.93;;;3.53;;
7205;SDS011;3644;53.480;10.004;2023-05-10T14:42:32;5.17;;;4.50;;
7205;SDS011;3644;53.480;10.004;2023-05-10T14:44:57;5.13;;;4.63;;
7205;SDS011;3644;53.480;10.004;2023-05-10T14:47:23;6.20;;;4.40;;
7205;SDS011;3644;53.480;10.004;2023-05-10T14:49:48;6.10;;;5.50;;
7205;SDS011;3644;53.480;10.004;2023-05-10T14:52:14;6.93;;;5.50;;
7205;SDS011;3644;53.480;10.004;2023-05-10T14:54:40;5.10;;;4.60;;
7205;SDS011;3644;53.480;10.004;2023-05-10T14:57:06;5.43;;;4.53;;
7205;SDS011;3644;53.480;10.004;2023-05-10T14:59:31;5.23;;;4.50;;
7205;SDS011;3644;53.480;10.004;2023-05-10T15:01:57;4.93;;;4.43;;
7205;SDS011;3644;53.480;10.004;2023-05-10T15:04:22;4.93;;;4.33;;
7205;SDS011;3644;53.480;10.004;2023-05-10T15:06:48;4.60;;;4.07;;
7205;SDS011;3644;53.480;10.004;2023-05-10T15:09:13;4.27;;;3.87;;
7205;SDS011;3644;53.480;10.004;2023-05-10T15:11:40;4.47;;;4.07;;
7205;SDS011;3644;53.480;10.004;2023-05-10T15:14:05;4.80;;;4.40;;
7205;SDS011;3644;53.480;10.004;2023-05-10T15:16:31;5.10;;;4.60;;
7205;SDS011;3644;53.480;10.004;2023-05-10T15:18:56;3.43;;;3.13;;
7205;SDS011;3644;53.480;10.004;2023-05-10T15:21:22;5.27;;;4.33;;